Haicheng, China
Current Conditions -  °F | °C
As of 7:00 AM on Tuesday 21 Oct 2014 (Local Time) from ZYTX Reporting Station
Haze Haze  
Wind Chill:   Ceiling: Unl
Heat Index:   Visibility: 3mi
Dew Point: -13°   Wind: 9mph
Humidity: 28%   Direction: 10°N
Pressure: 30.33"   Gusts: NA
Location:  40.86°N, 122.74°E
Report Text: ZYTX 202300Z 01004MPS 5000 HZ NSC 04/M13 Q1027 NOSIG
Loading
Personal Weather Stations






























Interactive Weather Map
Tropical Storm Tracking
New forecast layout! Learn more

10-Day Weather Forecast

Advertisements
Track Severe Weather on mobile